You are not logged in, Click here to log in
馬紹爾群島國際機場MAJ / PKMJ 馬紹爾群島首都馬朱羅
ICAO: PKMJ Country: 馬紹爾群島首都馬朱羅
Latitude: 7.06519 Longitude: 171.273
Total Arrivals: 4 Total Departures: 4
Latest Arrival: FS05 (NGTA-PKMJ)CHANG SHENG. HSIUNG Latest Departure: FS06 (PKMJ-ANYN)CHANG SHENG. HSIUNG
Scenery:
METAR : PKMJ 190359Z 05018KT 15SM FEW015 SCT050 BKN300 30/25 A2966

馬紹爾群島國際機場MAJ

You are accessing this site from IP address 35.175.113.29. Virtual Airline. CMS by phpVMS.Website designed by Zumeweb and edited by Theo Bearman.
There is 0 User(s) Online: | and 5 Guest(s) Online.
All information on this site is for fight simulation purposes only. This site is for flight logging for pilots of Virtual Airline&模擬飛行論壇 FlySim only.